sensor_id;sensor_type;location;lat;lon;timestamp;P1;durP1;ratioP1;P2;durP2;ratioP2
61085;SDS011;46967;48.876;2.136;2024-02-28T00:01:23;6.80;;;2.83;;
61085;SDS011;46967;48.876;2.136;2024-02-28T00:03:48;7.22;;;3.08;;
61085;SDS011;46967;48.876;2.136;2024-02-28T00:06:15;7.43;;;2.90;;
61085;SDS011;46967;48.876;2.136;2024-02-28T00:08:42;8.35;;;3.40;;
61085;SDS011;46967;48.876;2.136;2024-02-28T00:11:07;6.70;;;2.53;;
61085;SDS011;46967;48.876;2.136;2024-02-28T00:13:32;8.05;;;2.65;;
61085;SDS011;46967;48.876;2.136;2024-02-28T00:15:57;6.65;;;2.70;;
61085;SDS011;46967;48.876;2.136;2024-02-28T00:18:23;9.02;;;4.13;;
61085;SDS011;46967;48.876;2.136;2024-02-28T00:20:48;4.18;;;2.05;;
61085;SDS011;46967;48.876;2.136;2024-02-28T00:23:14;8.13;;;2.45;;
61085;SDS011;46967;48.876;2.136;2024-02-28T00:25:39;6.43;;;2.60;;
61085;SDS011;46967;48.876;2.136;2024-02-28T00:28:04;3.03;;;2.45;;
61085;SDS011;46967;48.876;2.136;2024-02-28T00:30:29;3.83;;;2.25;;
61085;SDS011;46967;48.876;2.136;2024-02-28T00:32:55;5.28;;;2.20;;
61085;SDS011;46967;48.876;2.136;2024-02-28T00:35:20;8.02;;;2.50;;
61085;SDS011;46967;48.876;2.136;2024-02-28T00:37:45;4.20;;;2.53;;
61085;SDS011;46967;48.876;2.136;2024-02-28T00:40:11;8.40;;;3.20;;
61085;SDS011;46967;48.876;2.136;2024-02-28T00:42:37;8.23;;;3.33;;
61085;SDS011;46967;48.876;2.136;2024-02-28T00:45:02;7.53;;;3.17;;
61085;SDS011;46967;48.876;2.136;2024-02-28T00:47:28;4.82;;;2.75;;
61085;SDS011;46967;48.876;2.136;2024-02-28T00:49:53;6.07;;;2.90;;
61085;SDS011;46967;48.876;2.136;2024-02-28T00:52:18;3.95;;;2.35;;
61085;SDS011;46967;48.876;2.136;2024-02-28T00:54:44;8.20;;;2.95;;
61085;SDS011;46967;48.876;2.136;2024-02-28T00:57:09;6.20;;;2.63;;
61085;SDS011;46967;48.876;2.136;2024-02-28T00:59:34;7.53;;;2.70;;
61085;SDS011;46967;48.876;2.136;2024-02-28T01:02:00;5.18;;;2.50;;
61085;SDS011;46967;48.876;2.136;2024-02-28T01:04:25;6.05;;;2.58;;
61085;SDS011;46967;48.876;2.136;2024-02-28T01:06:51;8.27;;;2.70;;
61085;SDS011;46967;48.876;2.136;2024-02-28T01:09:16;6.70;;;2.60;;
61085;SDS011;46967;48.876;2.136;2024-02-28T01:11:41;4.20;;;2.05;;
61085;SDS011;46967;48.876;2.136;2024-02-28T01:14:06;5.15;;;2.47;;
61085;SDS011;46967;48.876;2.136;2024-02-28T01:16:32;5.38;;;2.60;;
61085;SDS011;46967;48.876;2.136;2024-02-28T01:18:57;4.63;;;2.80;;
61085;SDS011;46967;48.876;2.136;2024-02-28T01:21:22;3.78;;;2.20;;
61085;SDS011;46967;48.876;2.136;2024-02-28T01:23:48;7.72;;;2.45;;
61085;SDS011;46967;48.876;2.136;2024-02-28T01:26:13;3.85;;;2.28;;
61085;SDS011;46967;48.876;2.136;2024-02-28T01:28:38;5.45;;;2.33;;
61085;SDS011;46967;48.876;2.136;2024-02-28T01:31:04;6.07;;;2.38;;
61085;SDS011;46967;48.876;2.136;2024-02-28T01:33:30;7.22;;;2.42;;
61085;SDS011;46967;48.876;2.136;2024-02-28T01:35:56;4.53;;;2.63;;
61085;SDS011;46967;48.876;2.136;2024-02-28T01:38:21;7.68;;;2.50;;
61085;SDS011;46967;48.876;2.136;2024-02-28T01:40:46;7.63;;;2.33;;
61085;SDS011;46967;48.876;2.136;2024-02-28T01:43:12;6.38;;;2.60;;
61085;SDS011;46967;48.876;2.136;2024-02-28T01:45:38;6.97;;;2.47;;
61085;SDS011;46967;48.876;2.136;2024-02-28T01:48:03;4.45;;;2.10;;
61085;SDS011;46967;48.876;2.136;2024-02-28T01:50:31;5.63;;;2.63;;
61085;SDS011;46967;48.876;2.136;2024-02-28T01:52:57;4.28;;;2.38;;
61085;SDS011;46967;48.876;2.136;2024-02-28T01:55:23;4.55;;;2.28;;
61085;SDS011;46967;48.876;2.136;2024-02-28T01:57:48;5.35;;;2.45;;
61085;SDS011;46967;48.876;2.136;2024-02-28T02:00:13;6.47;;;2.60;;
61085;SDS011;46967;48.876;2.136;2024-02-28T02:02:41;4.38;;;2.53;;
61085;SDS011;46967;48.876;2.136;2024-02-28T02:05:07;4.10;;;2.20;;
61085;SDS011;46967;48.876;2.136;2024-02-28T02:07:34;5.10;;;2.80;;
61085;SDS011;46967;48.876;2.136;2024-02-28T02:10:00;5.30;;;2.30;;
61085;SDS011;46967;48.876;2.136;2024-02-28T02:12:26;5.00;;;2.08;;
61085;SDS011;46967;48.876;2.136;2024-02-28T02:14:51;4.40;;;2.35;;
61085;SDS011;46967;48.876;2.136;2024-02-28T02:17:16;5.85;;;2.10;;
61085;SDS011;46967;48.876;2.136;2024-02-28T02:19:42;3.50;;;2.15;;
61085;SDS011;46967;48.876;2.136;2024-02-28T02:22:08;4.28;;;2.33;;
61085;SDS011;46967;48.876;2.136;2024-02-28T02:24:33;5.32;;;2.50;;
61085;SDS011;46967;48.876;2.136;2024-02-28T02:26:59;4.95;;;2.50;;
61085;SDS011;46967;48.876;2.136;2024-02-28T02:29:26;6.68;;;2.63;;
61085;SDS011;46967;48.876;2.136;2024-02-28T02:31:53;5.68;;;2.35;;
61085;SDS011;46967;48.876;2.136;2024-02-28T02:34:18;5.10;;;2.53;;
61085;SDS011;46967;48.876;2.136;2024-02-28T02:36:44;5.50;;;2.67;;
61085;SDS011;46967;48.876;2.136;2024-02-28T02:39:09;4.00;;;2.63;;
61085;SDS011;46967;48.876;2.136;2024-02-28T02:41:34;8.70;;;2.63;;
61085;SDS011;46967;48.876;2.136;2024-02-28T02:43:59;3.88;;;2.05;;
61085;SDS011;46967;48.876;2.136;2024-02-28T02:46:25;5.57;;;2.38;;
61085;SDS011;46967;48.876;2.136;2024-02-28T02:48:50;4.38;;;2.47;;
61085;SDS011;46967;48.876;2.136;2024-02-28T02:51:18;6.45;;;2.13;;
61085;SDS011;46967;48.876;2.136;2024-02-28T02:53:43;4.63;;;2.20;;
61085;SDS011;46967;48.876;2.136;2024-02-28T02:56:09;8.55;;;3.10;;
61085;SDS011;46967;48.876;2.136;2024-02-28T02:58:34;3.90;;;2.20;;
61085;SDS011;46967;48.876;2.136;2024-02-28T03:01:00;4.30;;;2.10;;
61085;SDS011;46967;48.876;2.136;2024-02-28T03:03:25;4.75;;;2.17;;
61085;SDS011;46967;48.876;2.136;2024-02-28T03:05:50;3.92;;;2.42;;
61085;SDS011;46967;48.876;2.136;2024-02-28T03:08:15;6.03;;;2.20;;
61085;SDS011;46967;48.876;2.136;2024-02-28T03:10:41;4.47;;;2.00;;
61085;SDS011;46967;48.876;2.136;2024-02-28T03:13:06;4.85;;;2.25;;
61085;SDS011;46967;48.876;2.136;2024-02-28T03:15:32;5.05;;;2.00;;
61085;SDS011;46967;48.876;2.136;2024-02-28T03:17:58;3.92;;;2.10;;
61085;SDS011;46967;48.876;2.136;2024-02-28T03:20:23;4.60;;;2.10;;
61085;SDS011;46967;48.876;2.136;2024-02-28T03:22:49;10.23;;;2.40;;
61085;SDS011;46967;48.876;2.136;2024-02-28T03:25:14;4.30;;;2.15;;
61085;SDS011;46967;48.876;2.136;2024-02-28T03:27:39;5.50;;;2.30;;
61085;SDS011;46967;48.876;2.136;2024-02-28T03:30:05;4.68;;;2.10;;
61085;SDS011;46967;48.876;2.136;2024-02-28T03:32:31;4.10;;;2.50;;
61085;SDS011;46967;48.876;2.136;2024-02-28T03:34:56;5.65;;;2.63;;
61085;SDS011;46967;48.876;2.136;2024-02-28T03:37:22;5.03;;;2.42;;
61085;SDS011;46967;48.876;2.136;2024-02-28T03:39:47;3.30;;;2.08;;
61085;SDS011;46967;48.876;2.136;2024-02-28T03:42:12;5.13;;;2.40;;
61085;SDS011;46967;48.876;2.136;2024-02-28T03:44:37;3.33;;;2.42;;
61085;SDS011;46967;48.876;2.136;2024-02-28T03:47:03;3.80;;;2.17;;
61085;SDS011;46967;48.876;2.136;2024-02-28T03:49:28;2.70;;;1.98;;
61085;SDS011;46967;48.876;2.136;2024-02-28T03:51:54;5.05;;;2.33;;
61085;SDS011;46967;48.876;2.136;2024-02-28T03:54:19;5.13;;;2.42;;
61085;SDS011;46967;48.876;2.136;2024-02-28T03:56:44;3.30;;;2.35;;
61085;SDS011;46967;48.876;2.136;2024-02-28T03:59:09;3.55;;;2.28;;
61085;SDS011;46967;48.876;2.136;2024-02-28T04:01:35;6.53;;;2.35;;
61085;SDS011;46967;48.876;2.136;2024-02-28T04:04:01;4.55;;;2.20;;
61085;SDS011;46967;48.876;2.136;2024-02-28T04:06:27;5.75;;;2.20;;
61085;SDS011;46967;48.876;2.136;2024-02-28T04:08:52;5.15;;;2.33;;
61085;SDS011;46967;48.876;2.136;2024-02-28T04:11:18;5.63;;;2.75;;
61085;SDS011;46967;48.876;2.136;2024-02-28T04:13:43;7.57;;;2.75;;
61085;SDS011;46967;48.876;2.136;2024-02-28T04:16:09;6.03;;;3.08;;
61085;SDS011;46967;48.876;2.136;2024-02-28T04:18:35;6.85;;;3.42;;
61085;SDS011;46967;48.876;2.136;2024-02-28T04:21:00;5.68;;;2.83;;
61085;SDS011;46967;48.876;2.136;2024-02-28T04:23:26;4.85;;;2.55;;
61085;SDS011;46967;48.876;2.136;2024-02-28T04:25:51;7.18;;;3.53;;
61085;SDS011;46967;48.876;2.136;2024-02-28T04:28:17;4.18;;;2.88;;
61085;SDS011;46967;48.876;2.136;2024-02-28T04:30:42;6.15;;;3.00;;
61085;SDS011;46967;48.876;2.136;2024-02-28T04:33:08;5.40;;;3.03;;
61085;SDS011;46967;48.876;2.136;2024-02-28T04:35:33;6.90;;;3.00;;
61085;SDS011;46967;48.876;2.136;2024-02-28T04:37:58;5.40;;;2.80;;
61085;SDS011;46967;48.876;2.136;2024-02-28T04:40:24;4.22;;;2.70;;
61085;SDS011;46967;48.876;2.136;2024-02-28T04:42:49;4.00;;;2.55;;
61085;SDS011;46967;48.876;2.136;2024-02-28T04:45:14;4.65;;;2.70;;
61085;SDS011;46967;48.876;2.136;2024-02-28T04:47:41;5.88;;;3.10;;
61085;SDS011;46967;48.876;2.136;2024-02-28T04:50:06;6.95;;;2.97;;
61085;SDS011;46967;48.876;2.136;2024-02-28T04:52:32;5.40;;;2.75;;
61085;SDS011;46967;48.876;2.136;2024-02-28T04:54:58;5.25;;;2.75;;
61085;SDS011;46967;48.876;2.136;2024-02-28T04:57:24;7.38;;;2.95;;
61085;SDS011;46967;48.876;2.136;2024-02-28T04:59:49;5.35;;;2.90;;
61085;SDS011;46967;48.876;2.136;2024-02-28T05:02:14;5.10;;;2.80;;
61085;SDS011;46967;48.876;2.136;2024-02-28T05:04:40;4.55;;;3.00;;
61085;SDS011;46967;48.876;2.136;2024-02-28T05:07:05;4.88;;;3.03;;
61085;SDS011;46967;48.876;2.136;2024-02-28T05:09:32;5.63;;;3.03;;
61085;SDS011;46967;48.876;2.136;2024-02-28T05:11:58;7.32;;;3.50;;
61085;SDS011;46967;48.876;2.136;2024-02-28T05:14:23;6.53;;;3.63;;
61085;SDS011;46967;48.876;2.136;2024-02-28T05:16:49;5.90;;;3.03;;
61085;SDS011;46967;48.876;2.136;2024-02-28T05:19:15;5.57;;;3.15;;
61085;SDS011;46967;48.876;2.136;2024-02-28T05:21:43;4.95;;;3.40;;
61085;SDS011;46967;48.876;2.136;2024-02-28T05:24:08;7.15;;;3.65;;
61085;SDS011;46967;48.876;2.136;2024-02-28T05:26:37;5.57;;;3.05;;
61085;SDS011;46967;48.876;2.136;2024-02-28T05:29:04;6.90;;;3.40;;
61085;SDS011;46967;48.876;2.136;2024-02-28T05:31:30;5.07;;;3.35;;
61085;SDS011;46967;48.876;2.136;2024-02-28T05:33:57;7.55;;;3.90;;
61085;SDS011;46967;48.876;2.136;2024-02-28T05:36:24;7.10;;;4.43;;
61085;SDS011;46967;48.876;2.136;2024-02-28T05:38:51;7.47;;;4.30;;
61085;SDS011;46967;48.876;2.136;2024-02-28T05:41:17;7.68;;;4.78;;
61085;SDS011;46967;48.876;2.136;2024-02-28T05:43:43;6.70;;;4.50;;
61085;SDS011;46967;48.876;2.136;2024-02-28T05:46:09;10.95;;;5.00;;
61085;SDS011;46967;48.876;2.136;2024-02-28T05:48:35;8.15;;;4.40;;
61085;SDS011;46967;48.876;2.136;2024-02-28T05:51:00;6.28;;;4.35;;
61085;SDS011;46967;48.876;2.136;2024-02-28T05:53:26;10.88;;;4.22;;
61085;SDS011;46967;48.876;2.136;2024-02-28T05:55:55;6.28;;;3.58;;
61085;SDS011;46967;48.876;2.136;2024-02-28T05:58:21;6.25;;;4.13;;
61085;SDS011;46967;48.876;2.136;2024-02-28T06:00:47;9.07;;;4.88;;
61085;SDS011;46967;48.876;2.136;2024-02-28T06:03:12;8.45;;;5.70;;
61085;SDS011;46967;48.876;2.136;2024-02-28T06:05:38;8.02;;;5.65;;
61085;SDS011;46967;48.876;2.136;2024-02-28T06:08:03;11.05;;;6.20;;
61085;SDS011;46967;48.876;2.136;2024-02-28T06:10:29;10.65;;;6.18;;
61085;SDS011;46967;48.876;2.136;2024-02-28T06:12:54;11.38;;;5.63;;
61085;SDS011;46967;48.876;2.136;2024-02-28T06:15:19;8.90;;;5.30;;
61085;SDS011;46967;48.876;2.136;2024-02-28T06:17:45;8.13;;;4.80;;
61085;SDS011;46967;48.876;2.136;2024-02-28T06:20:10;8.07;;;3.97;;
61085;SDS011;46967;48.876;2.136;2024-02-28T06:22:35;7.15;;;3.90;;
61085;SDS011;46967;48.876;2.136;2024-02-28T06:25:01;6.82;;;3.60;;
61085;SDS011;46967;48.876;2.136;2024-02-28T06:27:26;8.70;;;3.70;;
61085;SDS011;46967;48.876;2.136;2024-02-28T06:29:52;6.63;;;3.58;;
61085;SDS011;46967;48.876;2.136;2024-02-28T06:32:17;8.27;;;4.22;;
61085;SDS011;46967;48.876;2.136;2024-02-28T06:34:42;8.32;;;4.07;;
61085;SDS011;46967;48.876;2.136;2024-02-28T06:37:08;9.20;;;3.88;;
61085;SDS011;46967;48.876;2.136;2024-02-28T06:39:33;7.10;;;4.00;;
61085;SDS011;46967;48.876;2.136;2024-02-28T06:41:58;6.22;;;3.70;;
61085;SDS011;46967;48.876;2.136;2024-02-28T06:44:24;9.25;;;4.03;;
61085;SDS011;46967;48.876;2.136;2024-02-28T06:46:49;5.88;;;3.80;;
61085;SDS011;46967;48.876;2.136;2024-02-28T06:49:14;5.40;;;3.58;;
61085;SDS011;46967;48.876;2.136;2024-02-28T06:51:40;9.13;;;3.63;;
61085;SDS011;46967;48.876;2.136;2024-02-28T06:54:07;7.20;;;3.85;;
61085;SDS011;46967;48.876;2.136;2024-02-28T06:56:32;7.20;;;3.67;;
61085;SDS011;46967;48.876;2.136;2024-02-28T06:58:57;10.02;;;4.20;;
61085;SDS011;46967;48.876;2.136;2024-02-28T07:01:23;8.18;;;3.92;;
61085;SDS011;46967;48.876;2.136;2024-02-28T07:03:48;6.70;;;3.90;;
61085;SDS011;46967;48.876;2.136;2024-02-28T07:06:13;7.88;;;4.65;;
61085;SDS011;46967;48.876;2.136;2024-02-28T07:08:39;6.90;;;4.30;;
61085;SDS011;46967;48.876;2.136;2024-02-28T07:11:04;8.23;;;4.60;;
61085;SDS011;46967;48.876;2.136;2024-02-28T07:13:29;7.38;;;4.50;;
61085;SDS011;46967;48.876;2.136;2024-02-28T07:15:55;7.32;;;4.28;;
61085;SDS011;46967;48.876;2.136;2024-02-28T07:18:22;8.55;;;4.60;;
61085;SDS011;46967;48.876;2.136;2024-02-28T07:20:50;11.02;;;4.32;;
61085;SDS011;46967;48.876;2.136;2024-02-28T07:23:16;8.30;;;4.43;;
61085;SDS011;46967;48.876;2.136;2024-02-28T07:25:42;6.97;;;4.50;;
61085;SDS011;46967;48.876;2.136;2024-02-28T07:28:07;8.57;;;4.78;;
61085;SDS011;46967;48.876;2.136;2024-02-28T07:30:33;7.32;;;4.55;;
61085;SDS011;46967;48.876;2.136;2024-02-28T07:32:58;6.32;;;4.30;;
61085;SDS011;46967;48.876;2.136;2024-02-28T07:35:23;8.65;;;4.72;;
61085;SDS011;46967;48.876;2.136;2024-02-28T07:37:49;9.52;;;4.75;;
61085;SDS011;46967;48.876;2.136;2024-02-28T07:40:15;12.75;;;4.70;;
61085;SDS011;46967;48.876;2.136;2024-02-28T07:42:40;7.95;;;4.80;;
61085;SDS011;46967;48.876;2.136;2024-02-28T07:45:05;7.93;;;4.68;;
61085;SDS011;46967;48.876;2.136;2024-02-28T07:47:33;8.05;;;4.80;;
61085;SDS011;46967;48.876;2.136;2024-02-28T07:49:58;8.00;;;4.43;;
61085;SDS011;46967;48.876;2.136;2024-02-28T07:52:24;12.68;;;4.95;;
61085;SDS011;46967;48.876;2.136;2024-02-28T07:54:49;9.38;;;5.28;;
61085;SDS011;46967;48.876;2.136;2024-02-28T07:57:14;11.60;;;5.10;;
61085;SDS011;46967;48.876;2.136;2024-02-28T07:59:40;10.38;;;5.28;;
61085;SDS011;46967;48.876;2.136;2024-02-28T08:02:09;12.27;;;4.70;;
61085;SDS011;46967;48.876;2.136;2024-02-28T08:04:36;10.77;;;5.63;;
61085;SDS011;46967;48.876;2.136;2024-02-28T08:07:02;9.30;;;5.40;;
61085;SDS011;46967;48.876;2.136;2024-02-28T08:09:28;11.70;;;5.20;;
61085;SDS011;46967;48.876;2.136;2024-02-28T08:11:53;12.95;;;5.68;;
61085;SDS011;46967;48.876;2.136;2024-02-28T08:14:19;13.93;;;6.20;;
61085;SDS011;46967;48.876;2.136;2024-02-28T08:16:44;8.70;;;5.07;;
61085;SDS011;46967;48.876;2.136;2024-02-28T08:19:09;9.32;;;5.57;;
61085;SDS011;46967;48.876;2.136;2024-02-28T08:21:35;12.50;;;6.07;;
61085;SDS011;46967;48.876;2.136;2024-02-28T08:24:00;11.48;;;5.93;;
61085;SDS011;46967;48.876;2.136;2024-02-28T08:26:29;14.23;;;6.22;;
61085;SDS011;46967;48.876;2.136;2024-02-28T08:28:55;11.88;;;5.90;;
61085;SDS011;46967;48.876;2.136;2024-02-28T08:31:20;11.32;;;6.25;;
61085;SDS011;46967;48.876;2.136;2024-02-28T08:33:45;12.30;;;5.88;;
61085;SDS011;46967;48.876;2.136;2024-02-28T08:36:10;10.63;;;5.55;;
61085;SDS011;46967;48.876;2.136;2024-02-28T08:38:36;10.10;;;5.60;;
61085;SDS011;46967;48.876;2.136;2024-02-28T08:41:03;14.50;;;6.40;;
61085;SDS011;46967;48.876;2.136;2024-02-28T08:43:29;10.20;;;5.55;;
61085;SDS011;46967;48.876;2.136;2024-02-28T08:45:54;10.85;;;5.90;;
61085;SDS011;46967;48.876;2.136;2024-02-28T08:48:20;11.40;;;6.10;;
61085;SDS011;46967;48.876;2.136;2024-02-28T08:50:45;10.90;;;6.20;;
61085;SDS011;46967;48.876;2.136;2024-02-28T08:53:11;10.90;;;5.63;;
61085;SDS011;46967;48.876;2.136;2024-02-28T08:55:36;11.48;;;5.28;;
61085;SDS011;46967;48.876;2.136;2024-02-28T08:58:01;9.23;;;5.63;;
61085;SDS011;46967;48.876;2.136;2024-02-28T09:00:26;14.57;;;6.30;;
61085;SDS011;46967;48.876;2.136;2024-02-28T09:02:52;13.35;;;5.85;;
61085;SDS011;46967;48.876;2.136;2024-02-28T09:05:17;11.65;;;5.85;;
61085;SDS011;46967;48.876;2.136;2024-02-28T09:07:43;12.55;;;6.03;;
61085;SDS011;46967;48.876;2.136;2024-02-28T09:10:09;10.88;;;5.53;;
61085;SDS011;46967;48.876;2.136;2024-02-28T09:12:34;10.32;;;5.53;;
61085;SDS011;46967;48.876;2.136;2024-02-28T09:14:59;13.27;;;5.10;;
61085;SDS011;46967;48.876;2.136;2024-02-28T09:17:25;8.18;;;4.75;;
61085;SDS011;46967;48.876;2.136;2024-02-28T09:19:50;10.50;;;4.90;;
61085;SDS011;46967;48.876;2.136;2024-02-28T09:22:17;9.98;;;5.20;;
61085;SDS011;46967;48.876;2.136;2024-02-28T09:24:42;9.45;;;4.65;;
61085;SDS011;46967;48.876;2.136;2024-02-28T09:27:08;8.93;;;4.07;;
61085;SDS011;46967;48.876;2.136;2024-02-28T09:29:33;6.75;;;2.30;;
61085;SDS011;46967;48.876;2.136;2024-02-28T09:31:58;7.18;;;2.90;;
61085;SDS011;46967;48.876;2.136;2024-02-28T09:34:24;5.82;;;2.60;;
61085;SDS011;46967;48.876;2.136;2024-02-28T09:36:52;5.43;;;2.88;;
61085;SDS011;46967;48.876;2.136;2024-02-28T09:39:17;5.80;;;1.60;;
61085;SDS011;46967;48.876;2.136;2024-02-28T09:41:43;4.63;;;1.45;;
61085;SDS011;46967;48.876;2.136;2024-02-28T09:44:08;3.08;;;1.65;;
61085;SDS011;46967;48.876;2.136;2024-02-28T09:46:34;6.63;;;1.73;;
61085;SDS011;46967;48.876;2.136;2024-02-28T09:49:06;3.80;;;1.17;;
61085;SDS011;46967;48.876;2.136;2024-02-28T09:51:33;4.88;;;1.48;;
61085;SDS011;46967;48.876;2.136;2024-02-28T09:54:04;6.57;;;1.60;;
61085;SDS011;46967;48.876;2.136;2024-02-28T09:56:30;9.50;;;2.20;;
61085;SDS011;46967;48.876;2.136;2024-02-28T09:58:56;4.45;;;1.20;;
61085;SDS011;46967;48.876;2.136;2024-02-28T10:01:22;4.82;;;1.63;;
61085;SDS011;46967;48.876;2.136;2024-02-28T10:03:49;6.38;;;2.20;;
61085;SDS011;46967;48.876;2.136;2024-02-28T10:06:17;4.57;;;1.92;;
61085;SDS011;46967;48.876;2.136;2024-02-28T10:08:43;7.60;;;2.78;;
61085;SDS011;46967;48.876;2.136;2024-02-28T10:11:12;9.88;;;2.17;;
61085;SDS011;46967;48.876;2.136;2024-02-28T10:13:42;5.82;;;1.70;;
61085;SDS011;46967;48.876;2.136;2024-02-28T10:16:07;4.50;;;1.67;;
61085;SDS011;46967;48.876;2.136;2024-02-28T10:18:33;5.00;;;2.67;;
61085;SDS011;46967;48.876;2.136;2024-02-28T10:20:58;7.05;;;1.70;;
61085;SDS011;46967;48.876;2.136;2024-02-28T10:23:24;2.83;;;1.60;;
61085;SDS011;46967;48.876;2.136;2024-02-28T10:25:49;7.13;;;1.98;;
61085;SDS011;46967;48.876;2.136;2024-02-28T10:28:14;7.50;;;2.40;;
61085;SDS011;46967;48.876;2.136;2024-02-28T10:30:41;9.30;;;2.67;;
61085;SDS011;46967;48.876;2.136;2024-02-28T10:33:14;6.60;;;2.80;;
61085;SDS011;46967;48.876;2.136;2024-02-28T10:35:40;6.32;;;2.15;;
61085;SDS011;46967;48.876;2.136;2024-02-28T10:38:07;6.25;;;2.38;;
61085;SDS011;46967;48.876;2.136;2024-02-28T10:40:35;9.43;;;2.28;;
61085;SDS011;46967;48.876;2.136;2024-02-28T10:43:01;9.18;;;2.47;;
61085;SDS011;46967;48.876;2.136;2024-02-28T10:45:28;8.07;;;2.50;;
61085;SDS011;46967;48.876;2.136;2024-02-28T10:47:56;5.93;;;2.60;;
61085;SDS011;46967;48.876;2.136;2024-02-28T10:50:21;10.50;;;2.65;;
61085;SDS011;46967;48.876;2.136;2024-02-28T10:52:47;7.38;;;2.25;;
61085;SDS011;46967;48.876;2.136;2024-02-28T10:55:17;9.30;;;2.67;;
61085;SDS011;46967;48.876;2.136;2024-02-28T10:57:46;10.50;;;2.50;;
61085;SDS011;46967;48.876;2.136;2024-02-28T11:00:18;6.70;;;2.75;;
61085;SDS011;46967;48.876;2.136;2024-02-28T11:02:43;6.03;;;2.60;;
61085;SDS011;46967;48.876;2.136;2024-02-28T11:05:09;5.57;;;2.70;;
61085;SDS011;46967;48.876;2.136;2024-02-28T11:07:35;6.75;;;2.55;;
61085;SDS011;46967;48.876;2.136;2024-02-28T11:10:05;3.85;;;1.70;;
61085;SDS011;46967;48.876;2.136;2024-02-28T11:12:31;5.18;;;1.63;;
61085;SDS011;46967;48.876;2.136;2024-02-28T11:15:00;8.27;;;2.03;;
61085;SDS011;46967;48.876;2.136;2024-02-28T11:17:27;4.32;;;1.92;;
61085;SDS011;46967;48.876;2.136;2024-02-28T11:19:54;10.48;;;2.22;;
61085;SDS011;46967;48.876;2.136;2024-02-28T11:22:20;7.88;;;1.80;;
61085;SDS011;46967;48.876;2.136;2024-02-28T11:24:46;9.05;;;1.60;;
61085;SDS011;46967;48.876;2.136;2024-02-28T11:27:12;7.43;;;1.40;;
61085;SDS011;46967;48.876;2.136;2024-02-28T11:29:41;8.63;;;1.52;;
61085;SDS011;46967;48.876;2.136;2024-02-28T11:32:06;4.90;;;1.35;;
61085;SDS011;46967;48.876;2.136;2024-02-28T11:34:33;5.90;;;1.40;;
61085;SDS011;46967;48.876;2.136;2024-02-28T11:36:59;5.57;;;1.50;;
61085;SDS011;46967;48.876;2.136;2024-02-28T11:39:24;4.57;;;1.50;;
61085;SDS011;46967;48.876;2.136;2024-02-28T11:41:52;3.80;;;1.25;;
61085;SDS011;46967;48.876;2.136;2024-02-28T11:44:18;4.70;;;1.20;;
61085;SDS011;46967;48.876;2.136;2024-02-28T11:46:47;3.72;;;1.20;;
61085;SDS011;46967;48.876;2.136;2024-02-28T11:49:13;6.05;;;1.27;;
61085;SDS011;46967;48.876;2.136;2024-02-28T11:51:40;6.10;;;1.10;;
61085;SDS011;46967;48.876;2.136;2024-02-28T11:54:06;4.25;;;1.10;;
61085;SDS011;46967;48.876;2.136;2024-02-28T11:56:32;4.32;;;1.10;;
61085;SDS011;46967;48.876;2.136;2024-02-28T11:58:58;5.57;;;0.85;;
61085;SDS011;46967;48.876;2.136;2024-02-28T12:01:36;4.15;;;1.10;;
61085;SDS011;46967;48.876;2.136;2024-02-28T12:04:03;5.97;;;1.00;;
61085;SDS011;46967;48.876;2.136;2024-02-28T12:06:30;2.85;;;0.93;;
61085;SDS011;46967;48.876;2.136;2024-02-28T12:08:56;5.60;;;1.00;;
61085;SDS011;46967;48.876;2.136;2024-02-28T12:11:21;3.40;;;1.05;;
61085;SDS011;46967;48.876;2.136;2024-02-28T12:13:46;5.35;;;1.33;;
61085;SDS011;46967;48.876;2.136;2024-02-28T12:16:12;3.67;;;1.20;;
61085;SDS011;46967;48.876;2.136;2024-02-28T12:18:37;5.55;;;1.60;;
61085;SDS011;46967;48.876;2.136;2024-02-28T12:21:02;5.57;;;1.20;;
61085;SDS011;46967;48.876;2.136;2024-02-28T12:23:28;3.65;;;1.10;;
61085;SDS011;46967;48.876;2.136;2024-02-28T12:25:54;7.90;;;1.42;;
61085;SDS011;46967;48.876;2.136;2024-02-28T12:28:19;4.57;;;1.30;;
61085;SDS011;46967;48.876;2.136;2024-02-28T12:30:44;3.30;;;1.10;;
61085;SDS011;46967;48.876;2.136;2024-02-28T12:33:10;4.78;;;1.10;;
61085;SDS011;46967;48.876;2.136;2024-02-28T12:35:38;5.22;;;1.25;;
61085;SDS011;46967;48.876;2.136;2024-02-28T12:38:04;9.90;;;1.33;;
61085;SDS011;46967;48.876;2.136;2024-02-28T12:40:30;3.33;;;0.93;;
61085;SDS011;46967;48.876;2.136;2024-02-28T12:42:55;4.13;;;1.05;;
61085;SDS011;46967;48.876;2.136;2024-02-28T12:45:21;6.20;;;1.00;;
61085;SDS011;46967;48.876;2.136;2024-02-28T12:47:46;5.80;;;1.30;;
61085;SDS011;46967;48.876;2.136;2024-02-28T12:50:12;5.57;;;1.30;;
61085;SDS011;46967;48.876;2.136;2024-02-28T12:52:37;6.68;;;1.15;;
61085;SDS011;46967;48.876;2.136;2024-02-28T12:55:03;4.93;;;1.30;;
61085;SDS011;46967;48.876;2.136;2024-02-28T12:57:28;3.50;;;1.10;;
61085;SDS011;46967;48.876;2.136;2024-02-28T12:59:54;3.33;;;1.02;;
61085;SDS011;46967;48.876;2.136;2024-02-28T13:02:22;2.53;;;1.00;;
61085;SDS011;46967;48.876;2.136;2024-02-28T13:04:47;4.50;;;1.20;;
61085;SDS011;46967;48.876;2.136;2024-02-28T13:07:14;2.83;;;0.90;;
61085;SDS011;46967;48.876;2.136;2024-02-28T13:09:39;5.57;;;1.30;;
61085;SDS011;46967;48.876;2.136;2024-02-28T13:12:05;4.75;;;0.95;;
61085;SDS011;46967;48.876;2.136;2024-02-28T13:14:31;9.63;;;1.40;;
61085;SDS011;46967;48.876;2.136;2024-02-28T13:16:57;6.80;;;1.33;;
61085;SDS011;46967;48.876;2.136;2024-02-28T13:19:23;4.15;;;1.05;;
61085;SDS011;46967;48.876;2.136;2024-02-28T13:21:48;5.18;;;1.27;;
61085;SDS011;46967;48.876;2.136;2024-02-28T13:24:17;5.57;;;1.15;;
61085;SDS011;46967;48.876;2.136;2024-02-28T13:26:42;4.47;;;1.00;;
61085;SDS011;46967;48.876;2.136;2024-02-28T13:29:08;3.35;;;1.10;;
61085;SDS011;46967;48.876;2.136;2024-02-28T13:31:34;4.03;;;1.42;;
61085;SDS011;46967;48.876;2.136;2024-02-28T13:34:00;4.38;;;1.08;;
61085;SDS011;46967;48.876;2.136;2024-02-28T13:36:25;6.57;;;1.08;;
61085;SDS011;46967;48.876;2.136;2024-02-28T13:38:51;3.53;;;1.05;;
61085;SDS011;46967;48.876;2.136;2024-02-28T13:41:16;4.80;;;1.10;;
61085;SDS011;46967;48.876;2.136;2024-02-28T13:43:41;3.45;;;1.10;;
61085;SDS011;46967;48.876;2.136;2024-02-28T13:46:07;2.30;;;0.80;;
61085;SDS011;46967;48.876;2.136;2024-02-28T13:48:32;4.22;;;1.00;;
61085;SDS011;46967;48.876;2.136;2024-02-28T13:50:58;6.32;;;1.15;;
61085;SDS011;46967;48.876;2.136;2024-02-28T13:53:24;5.85;;;1.25;;
61085;SDS011;46967;48.876;2.136;2024-02-28T13:55:49;3.90;;;0.85;;
61085;SDS011;46967;48.876;2.136;2024-02-28T13:58:15;8.45;;;1.10;;
61085;SDS011;46967;48.876;2.136;2024-02-28T14:00:43;3.58;;;1.00;;
61085;SDS011;46967;48.876;2.136;2024-02-28T14:03:10;3.83;;;1.15;;
61085;SDS011;46967;48.876;2.136;2024-02-28T14:05:36;4.63;;;1.35;;
61085;SDS011;46967;48.876;2.136;2024-02-28T14:08:01;5.97;;;1.00;;
61085;SDS011;46967;48.876;2.136;2024-02-28T14:10:28;5.38;;;1.88;;
61085;SDS011;46967;48.876;2.136;2024-02-28T14:12:54;5.28;;;1.30;;
61085;SDS011;46967;48.876;2.136;2024-02-28T14:15:19;5.90;;;1.10;;
61085;SDS011;46967;48.876;2.136;2024-02-28T14:17:45;3.75;;;1.15;;
61085;SDS011;46967;48.876;2.136;2024-02-28T14:20:11;5.32;;;1.08;;
61085;SDS011;46967;48.876;2.136;2024-02-28T14:22:36;4.03;;;1.20;;
61085;SDS011;46967;48.876;2.136;2024-02-28T14:25:01;3.47;;;1.17;;
61085;SDS011;46967;48.876;2.136;2024-02-28T14:27:29;4.18;;;1.23;;
61085;SDS011;46967;48.876;2.136;2024-02-28T14:29:57;4.53;;;0.75;;
61085;SDS011;46967;48.876;2.136;2024-02-28T14:32:23;3.78;;;0.80;;
61085;SDS011;46967;48.876;2.136;2024-02-28T14:34:48;5.90;;;1.33;;
61085;SDS011;46967;48.876;2.136;2024-02-28T14:37:16;2.55;;;0.88;;